Plancius — PBQK — position and weather

sailwx.info

Track history (hours):
 
Tides and Currents Weather Stations Pressure Air Temp Water Temp Dewpoint Dewpoint Depression Visibility Wind Speed Wind Dir Waves Ship Positions

Plancius

Last reported at 2020-Jan-14 08:00 UTC. Time now 2020-Jan-18 21:29 UTC.
Position S 64°54' W 063°42'.

Length 90 m; draft 5.2 m.

Type: Passenger vessel. MMSI: 246573000.

Barometer 986.9 mb

Date/timePositionNaut miles runAvg speedWind from/ knotsBaromVisibWave heightAir tempDewpointWater temp
2020-Jan-14 08:00S 64°54' W 063°42'3 2.5 986.9
2020-Jan-14 07:00S 64°54' W 063°36'6 6.0 986.9
2020-Jan-14 06:00S 64°48' W 063°36'0 0.0 986.9
2020-Jan-14 05:00S 64°48' W 063°36'6 6.0 987.1
2020-Jan-14 04:00S 64°54' W 063°36'6 6.0 987.0
2020-Jan-14 03:00S 64°48' W 063°36'0 0.0 986.9
2020-Jan-14 02:00S 64°48' W 063°36'6 6.0 986.8
2020-Jan-14 01:00S 64°54' W 063°36'7 6.5 986.9
2020-Jan-14 00:00S 64°48' W 063°30'0 0.0 987.1
2020-Jan-13 23:00S 64°48' W 063°30'0 0.0 987.3
2020-Jan-13 22:00S 64°48' W 063°30'0 0.0 987.5
2020-Jan-13 21:00S 64°48' W 063°30'0 0.0 987.5
2020-Jan-13 20:00S 64°48' W 063°30'0 0.0 987.5
2020-Jan-13 19:00S 64°48' W 063°30'0 0.0 987.6
2020-Jan-13 18:00S 64°48' W 063°30'3 2.6 987.8
2020-Jan-13 17:00S 64°48' W 063°24'10 9.7 988.0
2020-Jan-13 16:00S 64°42' W 063°06'10 9.7 988.4
2020-Jan-13 15:00S 64°48' W 062°48'8 3.9 988.5
2020-Jan-13 13:00S 64°54' W 062°36'6 2.0 988.7
2020-Jan-13 10:00S 64°48' W 062°36'6 3.0 989.2
2020-Jan-13 08:00S 64°42' W 062°36'0 0.0 989.0
2020-Jan-13 07:00S 64°42' W 062°36'6 6.0 989.1
2020-Jan-13 06:00S 64°36' W 062°36'3 2.6 988.7
2020-Jan-13 05:00S 64°36' W 062°42'3 2.6 989.2
2020-Jan-13 04:00S 64°36' W 062°48'5 5.1 989.1
2020-Jan-13 03:00S 64°36' W 062°36'7 6.5 988.6
2020-Jan-13 02:00S 64°30' W 062°30'7 6.5 988.4
2020-Jan-13 01:00S 64°36' W 062°36'6 6.0 988.5
2020-Jan-13 00:00S 64°42' W 062°36'0 0.0 988.9
2020-Jan-12 23:00S 64°42' W 062°36'0 0.0 989.4
2020-Jan-12 22:00S 64°42' W 062°36'0 0.0 989.6
2020-Jan-12 21:00S 64°42' W 062°36'0 0.0 989.8
2020-Jan-12 20:00S 64°42' W 062°36'0 0.0 989.8
2020-Jan-12 19:00S 64°42' W 062°36'0 0.0 989.9
2020-Jan-12 18:00S 64°42' W 062°36'0 0.0 990.0
2020-Jan-12 17:00S 64°42' W 062°36'0 0.0 990.1
2020-Jan-12 16:00S 64°42' W 062°36'0 0.0 990.4
2020-Jan-12 15:00S 64°42' W 062°36'0 0.0 990.4
2020-Jan-12 14:00S 64°42' W 062°36'0 0.0 990.5
2020-Jan-12 13:00S 64°42' W 062°36'0 0.0 990.8
2020-Jan-12 12:00S 64°42' W 062°36'0 0.0 990.9
2020-Jan-12 11:00S 64°42' W 062°36'7 6.5 991.0
2020-Jan-12 10:00S 64°36' W 062°30'10 9.8 991.3
2020-Jan-12 09:00S 64°30' W 062°12'10 9.8 991.7
2020-Jan-12 08:00S 64°24' W 061°54'1414.3 992.0
2020-Jan-12 07:00S 64°12' W 061°36'8 8.0 992.1
2020-Jan-12 06:00S 64°06' W 061°24'1212.3 992.5
2020-Jan-12 05:00S 63°54' W 061°18'18 9.1 993.0
2020-Jan-12 03:00S 63°36' W 061°24'7 6.6 993.8
2020-Jan-12 02:00S 63°30' W 061°30'1212.3 994.0
2020-Jan-12 01:00S 63°18' W 061°36'8 8.1 994.4
2020-Jan-12 00:00S 63°12' W 061°48'2512.7 994.5
2020-Jan-11 22:00S 62°48' W 062°06'1313.2 995.1
2020-Jan-11 21:00S 62°36' W 062°18'1212.3 995.4
2020-Jan-11 20:00S 62°24' W 062°24'1212.3 995.6
2020-Jan-11 19:00S 62°12' W 062°30'1212.3 996.1
2020-Jan-11 18:00S 62°00' W 062°36'1212.3 996.3
2020-Jan-11 17:00S 61°48' W 062°42'1313.3 996.4
2020-Jan-11 16:00S 61°36' W 062°54'1212.3 996.7
2020-Jan-11 15:00S 61°24' W 063°00'1212.3 996.3
2020-Jan-11 14:00S 61°12' W 063°06'1212.3 996.5
2020-Jan-11 13:00S 61°00' W 063°12'1212.3 996.3
2020-Jan-11 12:00S 60°48' W 063°18'1313.4 996.1
2020-Jan-11 11:00S 60°36' W 063°30'1212.4 996.2
2020-Jan-11 10:00S 60°24' W 063°36'1212.4 996.1
2020-Jan-11 09:00S 60°12' W 063°42'2512.4 995.9
2020-Jan-11 07:00S 59°48' W 063°54'2512.4 995.0
2020-Jan-11 05:00S 59°24' W 064°06'7 6.7 994.6
2020-Jan-11 04:00S 59°18' W 064°12'1212.4 994.5
2020-Jan-11 03:00S 59°06' W 064°18'1212.4 994.3
2020-Jan-11 02:00S 58°54' W 064°24'1212.4 994.2
2020-Jan-11 01:00S 58°42' W 064°30'1212.4 993.1
2020-Jan-11 00:00S 58°30' W 064°36'1212.4 992.8
2020-Jan-10 23:00S 58°18' W 064°42'1212.4 992.3
2020-Jan-10 22:00S 58°06' W 064°48'7 6.8 992.3
2020-Jan-10 21:00S 58°00' W 064°54'1212.4 991.8
2020-Jan-10 20:00S 57°48' W 065°00'1212.4 991.6
2020-Jan-10 19:00S 57°36' W 065°06'1212.4 991.2
2020-Jan-10 18:00S 57°24' W 065°12'1212.4 991.0
2020-Jan-10 17:00S 57°12' W 065°18'1212.4 990.8
2020-Jan-10 16:00S 57°00' W 065°24'1212.4 990.8
2020-Jan-10 15:00S 56°48' W 065°30'7 6.8 990.6
2020-Jan-10 14:00S 56°42' W 065°36'1212.0 990.5
2020-Jan-10 13:00S 56°30' W 065°36'7 6.9 990.9
2020-Jan-10 12:00S 56°24' W 065°42'1212.5 991.5
2020-Jan-10 11:00S 56°12' W 065°48'1212.5 992.0
2020-Jan-10 10:00S 56°00' W 065°54'3110.3 992.3
2020-Jan-10 07:00S 55°30' W 066°06'9 9.1 992.0
2020-Jan-10 06:00S 55°24' W 066°18'1212.0 992.1
2020-Jan-10 05:00S 55°12' W 066°18'2411.9 992.5
2020-Jan-10 03:00S 55°00' W 066°54'1515.0 993.7
2020-Jan-10 02:00S 54°54' W 067°18'1413.8 993.0
2020-Jan-10 01:00S 54°54' W 067°42'1413.8 992.9
2020-Jan-10 00:00S 54°54' W 068°06'9 9.2 993.2
2020-Jan-09 23:00S 54°48' W 068°18'0 0.0 991.8
2020-Jan-09 22:00S 54°48' W 068°18'98 3.2 991.1
2020-Jan-08 15:00S 55°42' W 065°54'1413.8 974.6
2020-Jan-08 14:00S 55°54' W 065°42'7 6.9 975.4
2020-Jan-08 13:00S 56°00' W 065°36'1212.5 976.0
2020-Jan-08 12:00S 56°12' W 065°30'1413.7 976.6
2020-Jan-08 11:00S 56°24' W 065°18'7 6.9 977.6
2020-Jan-08 10:00S 56°30' W 065°12'1413.7 978.0
2020-Jan-08 09:00S 56°42' W 065°00'2613.0 978.0
2020-Jan-08 07:00S 57°06' W 064°42'1212.4 979.2
2020-Jan-08 06:00S 57°18' W 064°36'9 8.8 980.0
2020-Jan-08 05:00S 57°24' W 064°24'1413.6 980.7
2020-Jan-08 04:00S 57°36' W 064°12'1212.4 981.6
2020-Jan-08 03:00S 57°48' W 064°06'9 8.8 981.9
2020-Jan-08 02:00S 57°54' W 063°54'1212.4 982.6
2020-Jan-08 01:00S 58°06' W 063°48'1413.6 982.1
2020-Jan-08 00:00S 58°18' W 063°36'7 6.8 982.7
2020-Jan-07 23:00S 58°24' W 063°30'1413.5 983.4
2020-Jan-07 22:00S 58°36' W 063°18'1212.4 984.0
2020-Jan-07 21:00S 58°48' W 063°12'1413.5 984.1
2020-Jan-07 20:00S 59°00' W 063°00'7 6.7 984.5
2020-Jan-07 19:00S 59°06' W 062°54'   984.5
2020-Jan-05 14:00S 65°12' W 064°06'0 0.0 988.7
2020-Jan-05 13:00S 65°12' W 064°06'0 0.0 989.4
2020-Jan-05 12:00S 65°12' W 064°06'0 0.0 989.6
2020-Jan-05 11:00S 65°12' W 064°06'8 7.8 989.9
2020-Jan-05 10:00S 65°06' W 063°54'8 7.9 990.4
2020-Jan-05 09:00S 65°00' W 063°42'1212.3 991.7
2020-Jan-05 08:00S 64°48' W 063°36'3 2.6 992.3
2020-Jan-05 07:00S 64°48' W 063°30'0 0.0 992.2
2020-Jan-05 06:00S 64°48' W 063°30'3 2.6 992.5
2020-Jan-05 05:00S 64°48' W 063°36'6 6.0 992.6
2020-Jan-05 04:00S 64°54' W 063°36'6 6.0 993.1
2020-Jan-05 03:00S 64°48' W 063°36'0 0.0 993.3
2020-Jan-05 02:00S 64°48' W 063°36'6 6.0 993.6
2020-Jan-05 01:00S 64°54' W 063°36'7 6.5 994.0
2020-Jan-05 00:00S 64°48' W 063°30'0 0.0 994.3
2020-Jan-04 23:00S 64°48' W 063°30'0 0.0 994.6
2020-Jan-04 22:00S 64°48' W 063°30'0 0.0 994.9
2020-Jan-04 21:00S 64°48' W 063°30'0 0.0 995.1
2020-Jan-04 20:00S 64°48' W 063°30'0 0.0 995.3
2020-Jan-04 19:00S 64°48' W 063°30'0 0.0 995.4
2020-Jan-04 18:00S 64°48' W 063°30'0 0.0 995.4
2020-Jan-04 17:00S 64°48' W 063°30'0 0.0 995.4
2020-Jan-04 15:00S 64°48' W 063°30'0 0.0 995.4
2020-Jan-04 14:00S 64°48' W 063°30'0 0.0 995.6
2020-Jan-04 13:00S 64°48' W 063°30'0 0.0 995.7
2020-Jan-04 12:00S 64°48' W 063°30'0 0.0 995.7
2020-Jan-04 11:00S 64°48' W 063°30'10 9.7 995.8
2020-Jan-04 10:00S 64°42' W 063°12'1212.0 995.7
2020-Jan-04 09:00S 64°54' W 063°12'   995.6
Track history (hours):
 
Tides and Currents Weather Stations Pressure Air Temp Water Temp Dewpoint Dewpoint Depression Visibility Wind Speed Wind Dir Waves Ship Positions

Plancius

Last reported at 2020-Jan-14 08:00 UTC. Time now 2020-Jan-18 21:29 UTC.
Position S 64°54' W 063°42'.

Length 90 m; draft 5.2 m.

Type: Passenger vessel. MMSI: 246573000.

Barometer 986.9 mb

Date/timePositionNaut miles runAvg speedWind from/ knotsBaromVisibWave heightAir tempDewpointWater temp
2020-Jan-14 08:00S 64°54' W 063°42'3 2.5 986.9
2020-Jan-14 07:00S 64°54' W 063°36'6 6.0 986.9
2020-Jan-14 06:00S 64°48' W 063°36'0 0.0 986.9
2020-Jan-14 05:00S 64°48' W 063°36'6 6.0 987.1
2020-Jan-14 04:00S 64°54' W 063°36'6 6.0 987.0
2020-Jan-14 03:00S 64°48' W 063°36'0 0.0 986.9
2020-Jan-14 02:00S 64°48' W 063°36'6 6.0 986.8
2020-Jan-14 01:00S 64°54' W 063°36'7 6.5 986.9
2020-Jan-14 00:00S 64°48' W 063°30'0 0.0 987.1
2020-Jan-13 23:00S 64°48' W 063°30'0 0.0 987.3
2020-Jan-13 22:00S 64°48' W 063°30'0 0.0 987.5
2020-Jan-13 21:00S 64°48' W 063°30'0 0.0 987.5
2020-Jan-13 20:00S 64°48' W 063°30'0 0.0 987.5
2020-Jan-13 19:00S 64°48' W 063°30'0 0.0 987.6
2020-Jan-13 18:00S 64°48' W 063°30'3 2.6 987.8
2020-Jan-13 17:00S 64°48' W 063°24'10 9.7 988.0
2020-Jan-13 16:00S 64°42' W 063°06'10 9.7 988.4
2020-Jan-13 15:00S 64°48' W 062°48'8 3.9 988.5
2020-Jan-13 13:00S 64°54' W 062°36'6 2.0 988.7
2020-Jan-13 10:00S 64°48' W 062°36'6 3.0 989.2
2020-Jan-13 08:00S 64°42' W 062°36'0 0.0 989.0
2020-Jan-13 07:00S 64°42' W 062°36'6 6.0 989.1
2020-Jan-13 06:00S 64°36' W 062°36'3 2.6 988.7
2020-Jan-13 05:00S 64°36' W 062°42'3 2.6 989.2
2020-Jan-13 04:00S 64°36' W 062°48'5 5.1 989.1
2020-Jan-13 03:00S 64°36' W 062°36'7 6.5 988.6
2020-Jan-13 02:00S 64°30' W 062°30'7 6.5 988.4
2020-Jan-13 01:00S 64°36' W 062°36'6 6.0 988.5
2020-Jan-13 00:00S 64°42' W 062°36'0 0.0 988.9
2020-Jan-12 23:00S 64°42' W 062°36'0 0.0 989.4
2020-Jan-12 22:00S 64°42' W 062°36'0 0.0 989.6
2020-Jan-12 21:00S 64°42' W 062°36'0 0.0 989.8
2020-Jan-12 20:00S 64°42' W 062°36'0 0.0 989.8
2020-Jan-12 19:00S 64°42' W 062°36'0 0.0 989.9
2020-Jan-12 18:00S 64°42' W 062°36'0 0.0 990.0
2020-Jan-12 17:00S 64°42' W 062°36'0 0.0 990.1
2020-Jan-12 16:00S 64°42' W 062°36'0 0.0 990.4
2020-Jan-12 15:00S 64°42' W 062°36'0 0.0 990.4
2020-Jan-12 14:00S 64°42' W 062°36'0 0.0 990.5
2020-Jan-12 13:00S 64°42' W 062°36'0 0.0 990.8
2020-Jan-12 12:00S 64°42' W 062°36'0 0.0 990.9
2020-Jan-12 11:00S 64°42' W 062°36'7 6.5 991.0
2020-Jan-12 10:00S 64°36' W 062°30'10 9.8 991.3
2020-Jan-12 09:00S 64°30' W 062°12'10 9.8 991.7
2020-Jan-12 08:00S 64°24' W 061°54'1414.3 992.0
2020-Jan-12 07:00S 64°12' W 061°36'8 8.0 992.1
2020-Jan-12 06:00S 64°06' W 061°24'1212.3 992.5
2020-Jan-12 05:00S 63°54' W 061°18'18 9.1 993.0
2020-Jan-12 03:00S 63°36' W 061°24'7 6.6 993.8
2020-Jan-12 02:00S 63°30' W 061°30'1212.3 994.0
2020-Jan-12 01:00S 63°18' W 061°36'8 8.1 994.4
2020-Jan-12 00:00S 63°12' W 061°48'2512.7 994.5
2020-Jan-11 22:00S 62°48' W 062°06'1313.2 995.1
2020-Jan-11 21:00S 62°36' W 062°18'1212.3 995.4
2020-Jan-11 20:00S 62°24' W 062°24'1212.3 995.6
2020-Jan-11 19:00S 62°12' W 062°30'1212.3 996.1
2020-Jan-11 18:00S 62°00' W 062°36'1212.3 996.3
2020-Jan-11 17:00S 61°48' W 062°42'1313.3 996.4
2020-Jan-11 16:00S 61°36' W 062°54'1212.3 996.7
2020-Jan-11 15:00S 61°24' W 063°00'1212.3 996.3
2020-Jan-11 14:00S 61°12' W 063°06'1212.3 996.5
2020-Jan-11 13:00S 61°00' W 063°12'1212.3 996.3
2020-Jan-11 12:00S 60°48' W 063°18'1313.4 996.1
2020-Jan-11 11:00S 60°36' W 063°30'1212.4 996.2
2020-Jan-11 10:00S 60°24' W 063°36'1212.4 996.1
2020-Jan-11 09:00S 60°12' W 063°42'2512.4 995.9
2020-Jan-11 07:00S 59°48' W 063°54'2512.4 995.0
2020-Jan-11 05:00S 59°24' W 064°06'7 6.7 994.6
2020-Jan-11 04:00S 59°18' W 064°12'1212.4 994.5
2020-Jan-11 03:00S 59°06' W 064°18'1212.4 994.3
2020-Jan-11 02:00S 58°54' W 064°24'1212.4 994.2
2020-Jan-11 01:00S 58°42' W 064°30'1212.4 993.1
2020-Jan-11 00:00S 58°30' W 064°36'1212.4 992.8
2020-Jan-10 23:00S 58°18' W 064°42'1212.4 992.3
2020-Jan-10 22:00S 58°06' W 064°48'7 6.8 992.3
2020-Jan-10 21:00S 58°00' W 064°54'1212.4 991.8
2020-Jan-10 20:00S 57°48' W 065°00'1212.4 991.6
2020-Jan-10 19:00S 57°36' W 065°06'1212.4 991.2
2020-Jan-10 18:00S 57°24' W 065°12'1212.4 991.0
2020-Jan-10 17:00S 57°12' W 065°18'1212.4 990.8
2020-Jan-10 16:00S 57°00' W 065°24'1212.4 990.8
2020-Jan-10 15:00S 56°48' W 065°30'7 6.8 990.6
2020-Jan-10 14:00S 56°42' W 065°36'1212.0 990.5
2020-Jan-10 13:00S 56°30' W 065°36'7 6.9 990.9
2020-Jan-10 12:00S 56°24' W 065°42'1212.5 991.5
2020-Jan-10 11:00S 56°12' W 065°48'1212.5 992.0
2020-Jan-10 10:00S 56°00' W 065°54'3110.3 992.3
2020-Jan-10 07:00S 55°30' W 066°06'9 9.1 992.0
2020-Jan-10 06:00S 55°24' W 066°18'1212.0 992.1
2020-Jan-10 05:00S 55°12' W 066°18'2411.9 992.5
2020-Jan-10 03:00S 55°00' W 066°54'1515.0 993.7
2020-Jan-10 02:00S 54°54' W 067°18'1413.8 993.0
2020-Jan-10 01:00S 54°54' W 067°42'1413.8 992.9
2020-Jan-10 00:00S 54°54' W 068°06'9 9.2 993.2
2020-Jan-09 23:00S 54°48' W 068°18'0 0.0 991.8
2020-Jan-09 22:00S 54°48' W 068°18'98 3.2 991.1
2020-Jan-08 15:00S 55°42' W 065°54'1413.8 974.6
2020-Jan-08 14:00S 55°54' W 065°42'7 6.9 975.4
2020-Jan-08 13:00S 56°00' W 065°36'1212.5 976.0
2020-Jan-08 12:00S 56°12' W 065°30'1413.7 976.6
2020-Jan-08 11:00S 56°24' W 065°18'7 6.9 977.6
2020-Jan-08 10:00S 56°30' W 065°12'1413.7 978.0
2020-Jan-08 09:00S 56°42' W 065°00'2613.0 978.0
2020-Jan-08 07:00S 57°06' W 064°42'1212.4 979.2
2020-Jan-08 06:00S 57°18' W 064°36'9 8.8 980.0
2020-Jan-08 05:00S 57°24' W 064°24'1413.6 980.7
2020-Jan-08 04:00S 57°36' W 064°12'1212.4 981.6
2020-Jan-08 03:00S 57°48' W 064°06'9 8.8 981.9
2020-Jan-08 02:00S 57°54' W 063°54'1212.4 982.6
2020-Jan-08 01:00S 58°06' W 063°48'1413.6 982.1
2020-Jan-08 00:00S 58°18' W 063°36'7 6.8 982.7
2020-Jan-07 23:00S 58°24' W 063°30'1413.5 983.4
2020-Jan-07 22:00S 58°36' W 063°18'1212.4 984.0
2020-Jan-07 21:00S 58°48' W 063°12'1413.5 984.1
2020-Jan-07 20:00S 59°00' W 063°00'7 6.7 984.5
2020-Jan-07 19:00S 59°06' W 062°54'   984.5
2020-Jan-05 14:00S 65°12' W 064°06'0 0.0 988.7
2020-Jan-05 13:00S 65°12' W 064°06'0 0.0 989.4
2020-Jan-05 12:00S 65°12' W 064°06'0 0.0 989.6
2020-Jan-05 11:00S 65°12' W 064°06'8 7.8 989.9
2020-Jan-05 10:00S 65°06' W 063°54'8 7.9 990.4
2020-Jan-05 09:00S 65°00' W 063°42'1212.3 991.7
2020-Jan-05 08:00S 64°48' W 063°36'3 2.6 992.3
2020-Jan-05 07:00S 64°48' W 063°30'0 0.0 992.2
2020-Jan-05 06:00S 64°48' W 063°30'3 2.6 992.5
2020-Jan-05 05:00S 64°48' W 063°36'6 6.0 992.6
2020-Jan-05 04:00S 64°54' W 063°36'6 6.0 993.1
2020-Jan-05 03:00S 64°48' W 063°36'0 0.0 993.3
2020-Jan-05 02:00S 64°48' W 063°36'6 6.0 993.6
2020-Jan-05 01:00S 64°54' W 063°36'7 6.5 994.0
2020-Jan-05 00:00S 64°48' W 063°30'0 0.0 994.3
2020-Jan-04 23:00S 64°48' W 063°30'0 0.0 994.6
2020-Jan-04 22:00S 64°48' W 063°30'0 0.0 994.9
2020-Jan-04 21:00S 64°48' W 063°30'0 0.0 995.1
2020-Jan-04 20:00S 64°48' W 063°30'0 0.0 995.3
2020-Jan-04 19:00S 64°48' W 063°30'0 0.0 995.4
2020-Jan-04 18:00S 64°48' W 063°30'0 0.0 995.4
2020-Jan-04 17:00S 64°48' W 063°30'0 0.0 995.4
2020-Jan-04 15:00S 64°48' W 063°30'0 0.0 995.4
2020-Jan-04 14:00S 64°48' W 063°30'0 0.0 995.6
2020-Jan-04 13:00S 64°48' W 063°30'0 0.0 995.7
2020-Jan-04 12:00S 64°48' W 063°30'0 0.0 995.7
2020-Jan-04 11:00S 64°48' W 063°30'10 9.7 995.8
2020-Jan-04 10:00S 64°42' W 063°12'1212.0 995.7
2020-Jan-04 09:00S 64°54' W 063°12'   995.6

Dump ship's entire track history